sensor_id;sensor_type;location;lat;lon;timestamp;P1;durP1;ratioP1;P2;durP2;ratioP2
64052;SDS011;50299;49.524;8.536;2023-06-22T00:00:01;7.28;;;6.68;;
64052;SDS011;50299;49.524;8.536;2023-06-22T00:02:34;8.55;;;6.20;;
64052;SDS011;50299;49.524;8.536;2023-06-22T00:05:00;7.35;;;6.57;;
64052;SDS011;50299;49.524;8.536;2023-06-22T00:07:27;7.22;;;6.47;;
64052;SDS011;50299;49.524;8.536;2023-06-22T00:09:53;8.48;;;7.60;;
64052;SDS011;50299;49.524;8.536;2023-06-22T00:12:19;7.13;;;6.43;;
64052;SDS011;50299;49.524;8.536;2023-06-22T00:14:46;7.35;;;6.65;;
64052;SDS011;50299;49.524;8.536;2023-06-22T00:17:12;7.03;;;6.43;;
64052;SDS011;50299;49.524;8.536;2023-06-22T00:19:39;6.88;;;6.28;;
64052;SDS011;50299;49.524;8.536;2023-06-22T00:22:06;7.60;;;7.00;;
64052;SDS011;50299;49.524;8.536;2023-06-22T00:24:32;8.10;;;7.45;;
64052;SDS011;50299;49.524;8.536;2023-06-22T00:26:59;7.55;;;6.85;;
64052;SDS011;50299;49.524;8.536;2023-06-22T00:29:25;7.85;;;7.10;;
64052;SDS011;50299;49.524;8.536;2023-06-22T00:31:52;7.82;;;7.10;;
64052;SDS011;50299;49.524;8.536;2023-06-22T00:34:18;8.05;;;7.22;;
64052;SDS011;50299;49.524;8.536;2023-06-22T00:36:45;7.88;;;7.18;;
64052;SDS011;50299;49.524;8.536;2023-06-22T00:39:12;7.82;;;7.18;;
64052;SDS011;50299;49.524;8.536;2023-06-22T00:41:38;8.73;;;7.35;;
64052;SDS011;50299;49.524;8.536;2023-06-22T00:44:05;7.78;;;7.07;;
64052;SDS011;50299;49.524;8.536;2023-06-22T00:46:32;8.00;;;7.15;;
64052;SDS011;50299;49.524;8.536;2023-06-22T00:48:59;8.75;;;7.95;;
64052;SDS011;50299;49.524;8.536;2023-06-22T00:51:26;8.30;;;7.55;;
64052;SDS011;50299;49.524;8.536;2023-06-22T00:53:52;10.02;;;9.13;;
64052;SDS011;50299;49.524;8.536;2023-06-22T00:56:19;9.35;;;7.88;;
64052;SDS011;50299;49.524;8.536;2023-06-22T00:58:51;9.23;;;8.27;;
64052;SDS011;50299;49.524;8.536;2023-06-22T01:01:23;13.90;;;9.57;;
64052;SDS011;50299;49.524;8.536;2023-06-22T01:03:50;10.52;;;9.52;;
64052;SDS011;50299;49.524;8.536;2023-06-22T01:06:19;11.23;;;10.13;;
64052;SDS011;50299;49.524;8.536;2023-06-22T01:09:06;12.07;;;10.85;;
64052;SDS011;50299;49.524;8.536;2023-06-22T01:11:43;12.77;;;11.57;;
64052;SDS011;50299;49.524;8.536;2023-06-22T01:14:15;12.25;;;11.10;;
64052;SDS011;50299;49.524;8.536;2023-06-22T01:16:48;12.98;;;11.75;;
64052;SDS011;50299;49.524;8.536;2023-06-22T01:22:26;12.90;;;11.70;;
64052;SDS011;50299;49.524;8.536;2023-06-22T01:27:53;12.57;;;11.52;;
64052;SDS011;50299;49.524;8.536;2023-06-22T01:30:27;12.20;;;11.00;;
64052;SDS011;50299;49.524;8.536;2023-06-22T01:32:56;12.40;;;11.27;;
64052;SDS011;50299;49.524;8.536;2023-06-22T01:35:23;13.85;;;12.65;;
64052;SDS011;50299;49.524;8.536;2023-06-22T01:37:51;11.88;;;10.80;;
64052;SDS011;50299;49.524;8.536;2023-06-22T01:40:18;12.35;;;11.25;;
64052;SDS011;50299;49.524;8.536;2023-06-22T01:42:45;12.00;;;10.98;;
64052;SDS011;50299;49.524;8.536;2023-06-22T01:45:13;12.25;;;11.07;;
64052;SDS011;50299;49.524;8.536;2023-06-22T01:47:41;12.48;;;11.38;;
64052;SDS011;50299;49.524;8.536;2023-06-22T01:50:08;12.23;;;11.13;;
64052;SDS011;50299;49.524;8.536;2023-06-22T01:52:35;11.90;;;10.85;;
64052;SDS011;50299;49.524;8.536;2023-06-22T01:55:01;13.10;;;12.00;;
64052;SDS011;50299;49.524;8.536;2023-06-22T01:57:28;11.88;;;10.80;;
64052;SDS011;50299;49.524;8.536;2023-06-22T02:00:02;13.05;;;11.85;;
64052;SDS011;50299;49.524;8.536;2023-06-22T02:03:02;13.05;;;11.85;;
64052;SDS011;50299;49.524;8.536;2023-06-22T02:05:36;12.60;;;11.45;;
64052;SDS011;50299;49.524;8.536;2023-06-22T02:08:10;13.70;;;12.48;;
64052;SDS011;50299;49.524;8.536;2023-06-22T02:10:42;12.73;;;11.52;;
64052;SDS011;50299;49.524;8.536;2023-06-22T02:13:11;13.15;;;11.90;;
64052;SDS011;50299;49.524;8.536;2023-06-22T02:15:40;12.48;;;11.38;;
64052;SDS011;50299;49.524;8.536;2023-06-22T02:18:06;13.27;;;12.07;;
64052;SDS011;50299;49.524;8.536;2023-06-22T02:20:36;12.75;;;11.75;;
64052;SDS011;50299;49.524;8.536;2023-06-22T02:23:03;12.98;;;11.75;;
64052;SDS011;50299;49.524;8.536;2023-06-22T02:25:29;12.57;;;11.48;;
64052;SDS011;50299;49.524;8.536;2023-06-22T02:27:56;12.85;;;11.75;;
64052;SDS011;50299;49.524;8.536;2023-06-22T02:30:22;12.15;;;11.15;;
64052;SDS011;50299;49.524;8.536;2023-06-22T02:32:49;12.90;;;11.70;;
64052;SDS011;50299;49.524;8.536;2023-06-22T02:35:15;12.77;;;11.68;;
64052;SDS011;50299;49.524;8.536;2023-06-22T02:37:42;12.98;;;11.80;;
64052;SDS011;50299;49.524;8.536;2023-06-22T02:40:08;13.52;;;12.43;;
64052;SDS011;50299;49.524;8.536;2023-06-22T02:42:36;15.35;;;13.90;;
64052;SDS011;50299;49.524;8.536;2023-06-22T02:45:03;13.63;;;12.43;;
64052;SDS011;50299;49.524;8.536;2023-06-22T02:47:30;13.63;;;12.48;;
64052;SDS011;50299;49.524;8.536;2023-06-22T02:49:57;14.05;;;12.85;;
64052;SDS011;50299;49.524;8.536;2023-06-22T02:52:24;14.23;;;12.90;;
64052;SDS011;50299;49.524;8.536;2023-06-22T02:54:50;13.98;;;12.80;;
64052;SDS011;50299;49.524;8.536;2023-06-22T02:57:16;14.68;;;13.38;;
64052;SDS011;50299;49.524;8.536;2023-06-22T02:59:43;13.90;;;12.57;;
64052;SDS011;50299;49.524;8.536;2023-06-22T03:02:09;14.48;;;12.85;;
64052;SDS011;50299;49.524;8.536;2023-06-22T03:04:37;14.98;;;13.57;;
64052;SDS011;50299;49.524;8.536;2023-06-22T03:07:04;15.45;;;14.15;;
64052;SDS011;50299;49.524;8.536;2023-06-22T03:09:32;14.52;;;13.23;;
64052;SDS011;50299;49.524;8.536;2023-06-22T03:11:58;15.50;;;13.93;;
64052;SDS011;50299;49.524;8.536;2023-06-22T03:14:25;14.73;;;13.20;;
64052;SDS011;50299;49.524;8.536;2023-06-22T03:16:51;15.40;;;14.15;;
64052;SDS011;50299;49.524;8.536;2023-06-22T03:19:18;13.60;;;12.40;;
64052;SDS011;50299;49.524;8.536;2023-06-22T03:21:45;14.85;;;13.57;;
64052;SDS011;50299;49.524;8.536;2023-06-22T03:24:12;15.25;;;13.88;;
64052;SDS011;50299;49.524;8.536;2023-06-22T03:26:38;15.00;;;13.70;;
64052;SDS011;50299;49.524;8.536;2023-06-22T03:29:05;14.38;;;13.15;;
64052;SDS011;50299;49.524;8.536;2023-06-22T03:31:31;16.23;;;14.73;;
64052;SDS011;50299;49.524;8.536;2023-06-22T03:33:57;16.70;;;15.02;;
64052;SDS011;50299;49.524;8.536;2023-06-22T03:36:24;17.13;;;15.40;;
64052;SDS011;50299;49.524;8.536;2023-06-22T03:38:51;18.10;;;16.42;;
64052;SDS011;50299;49.524;8.536;2023-06-22T03:41:17;16.75;;;15.05;;
64052;SDS011;50299;49.524;8.536;2023-06-22T03:43:44;16.95;;;15.30;;
64052;SDS011;50299;49.524;8.536;2023-06-22T03:46:10;16.20;;;14.73;;
64052;SDS011;50299;49.524;8.536;2023-06-22T03:48:37;16.20;;;14.70;;
64052;SDS011;50299;49.524;8.536;2023-06-22T03:51:04;16.42;;;14.93;;
64052;SDS011;50299;49.524;8.536;2023-06-22T03:53:30;15.98;;;14.32;;
64052;SDS011;50299;49.524;8.536;2023-06-22T03:55:57;15.45;;;14.15;;
64052;SDS011;50299;49.524;8.536;2023-06-22T03:58:23;14.27;;;13.07;;
64052;SDS011;50299;49.524;8.536;2023-06-22T04:00:50;14.93;;;13.52;;
64052;SDS011;50299;49.524;8.536;2023-06-22T04:03:19;14.30;;;13.00;;
64052;SDS011;50299;49.524;8.536;2023-06-22T04:05:46;12.98;;;11.88;;
64052;SDS011;50299;49.524;8.536;2023-06-22T04:08:14;12.40;;;11.40;;
64052;SDS011;50299;49.524;8.536;2023-06-22T04:10:40;13.82;;;12.40;;
64052;SDS011;50299;49.524;8.536;2023-06-22T04:13:09;13.65;;;12.35;;
64052;SDS011;50299;49.524;8.536;2023-06-22T04:15:36;12.63;;;11.40;;
64052;SDS011;50299;49.524;8.536;2023-06-22T04:18:03;12.52;;;11.32;;
64052;SDS011;50299;49.524;8.536;2023-06-22T04:20:31;13.75;;;12.52;;
64052;SDS011;50299;49.524;8.536;2023-06-22T04:22:58;14.40;;;13.05;;
64052;SDS011;50299;49.524;8.536;2023-06-22T04:25:25;14.38;;;12.98;;
64052;SDS011;50299;49.524;8.536;2023-06-22T04:30:20;17.95;;;13.57;;
64052;SDS011;50299;49.524;8.536;2023-06-22T04:32:47;14.85;;;13.52;;
64052;SDS011;50299;49.524;8.536;2023-06-22T04:35:24;16.20;;;14.55;;
64052;SDS011;50299;49.524;8.536;2023-06-22T04:37:52;13.80;;;12.60;;
64052;SDS011;50299;49.524;8.536;2023-06-22T04:40:21;16.42;;;14.95;;
64052;SDS011;50299;49.524;8.536;2023-06-22T04:42:49;13.57;;;12.38;;
64052;SDS011;50299;49.524;8.536;2023-06-22T04:45:19;12.57;;;11.48;;
64052;SDS011;50299;49.524;8.536;2023-06-22T04:47:47;12.70;;;11.50;;
64052;SDS011;50299;49.524;8.536;2023-06-22T04:50:14;12.60;;;11.30;;
64052;SDS011;50299;49.524;8.536;2023-06-22T04:52:41;13.27;;;11.98;;
64052;SDS011;50299;49.524;8.536;2023-06-22T04:55:07;13.00;;;11.75;;
64052;SDS011;50299;49.524;8.536;2023-06-22T04:57:34;11.52;;;10.52;;
64052;SDS011;50299;49.524;8.536;2023-06-22T05:00:01;12.43;;;11.18;;
64052;SDS011;50299;49.524;8.536;2023-06-22T05:02:38;13.18;;;11.98;;
64052;SDS011;50299;49.524;8.536;2023-06-22T05:05:05;12.13;;;10.93;;
64052;SDS011;50299;49.524;8.536;2023-06-22T05:07:33;12.40;;;11.10;;
64052;SDS011;50299;49.524;8.536;2023-06-22T05:10:01;11.57;;;10.48;;
64052;SDS011;50299;49.524;8.536;2023-06-22T05:12:29;12.75;;;10.57;;
64052;SDS011;50299;49.524;8.536;2023-06-22T05:14:56;9.95;;;8.95;;
64052;SDS011;50299;49.524;8.536;2023-06-22T05:17:25;13.68;;;9.15;;
64052;SDS011;50299;49.524;8.536;2023-06-22T05:19:52;9.73;;;8.73;;
64052;SDS011;50299;49.524;8.536;2023-06-22T05:22:20;10.75;;;9.75;;
64052;SDS011;50299;49.524;8.536;2023-06-22T05:24:47;9.98;;;8.88;;
64052;SDS011;50299;49.524;8.536;2023-06-22T05:27:14;9.52;;;8.30;;
64052;SDS011;50299;49.524;8.536;2023-06-22T05:29:41;9.90;;;9.07;;
64052;SDS011;50299;49.524;8.536;2023-06-22T05:32:11;8.90;;;8.10;;
64052;SDS011;50299;49.524;8.536;2023-06-22T05:34:38;9.23;;;8.27;;
64052;SDS011;50299;49.524;8.536;2023-06-22T05:37:04;8.90;;;8.00;;
64052;SDS011;50299;49.524;8.536;2023-06-22T05:39:31;8.75;;;7.88;;
64052;SDS011;50299;49.524;8.536;2023-06-22T05:41:58;8.52;;;7.80;;
64052;SDS011;50299;49.524;8.536;2023-06-22T05:44:24;8.60;;;7.80;;
64052;SDS011;50299;49.524;8.536;2023-06-22T05:46:51;13.80;;;9.07;;
64052;SDS011;50299;49.524;8.536;2023-06-22T05:49:17;9.15;;;7.75;;
64052;SDS011;50299;49.524;8.536;2023-06-22T05:51:44;9.60;;;8.52;;
64052;SDS011;50299;49.524;8.536;2023-06-22T05:54:11;9.50;;;8.60;;
64052;SDS011;50299;49.524;8.536;2023-06-22T05:56:39;10.55;;;8.90;;
64052;SDS011;50299;49.524;8.536;2023-06-22T05:59:06;8.82;;;7.60;;
64052;SDS011;50299;49.524;8.536;2023-06-22T06:01:32;8.43;;;7.57;;
64052;SDS011;50299;49.524;8.536;2023-06-22T06:04:02;9.02;;;8.13;;
64052;SDS011;50299;49.524;8.536;2023-06-22T06:08:57;8.95;;;8.07;;
64052;SDS011;50299;49.524;8.536;2023-06-22T06:11:23;9.23;;;7.65;;
64052;SDS011;50299;49.524;8.536;2023-06-22T06:13:52;8.93;;;7.65;;
64052;SDS011;50299;49.524;8.536;2023-06-22T06:16:18;7.80;;;7.10;;
64052;SDS011;50299;49.524;8.536;2023-06-22T06:18:45;8.68;;;7.93;;
64052;SDS011;50299;49.524;8.536;2023-06-22T06:21:13;8.27;;;7.47;;
64052;SDS011;50299;49.524;8.536;2023-06-22T06:23:39;7.47;;;6.78;;
64052;SDS011;50299;49.524;8.536;2023-06-22T06:26:06;8.35;;;7.55;;
64052;SDS011;50299;49.524;8.536;2023-06-22T06:28:34;8.38;;;7.15;;
64052;SDS011;50299;49.524;8.536;2023-06-22T06:31:03;9.80;;;7.80;;
64052;SDS011;50299;49.524;8.536;2023-06-22T06:33:33;7.95;;;7.20;;
64052;SDS011;50299;49.524;8.536;2023-06-22T06:36:00;7.85;;;7.15;;
64052;SDS011;50299;49.524;8.536;2023-06-22T06:38:30;7.32;;;6.63;;
64052;SDS011;50299;49.524;8.536;2023-06-22T06:40:57;7.63;;;6.90;;
64052;SDS011;50299;49.524;8.536;2023-06-22T06:43:25;10.95;;;7.70;;
64052;SDS011;50299;49.524;8.536;2023-06-22T06:45:51;7.32;;;6.72;;
64052;SDS011;50299;49.524;8.536;2023-06-22T06:48:18;7.60;;;6.90;;
64052;SDS011;50299;49.524;8.536;2023-06-22T06:50:44;7.30;;;6.45;;
64052;SDS011;50299;49.524;8.536;2023-06-22T06:53:11;8.18;;;7.28;;
64052;SDS011;50299;49.524;8.536;2023-06-22T06:55:37;7.88;;;6.63;;
64052;SDS011;50299;49.524;8.536;2023-06-22T06:58:04;6.70;;;5.88;;
64052;SDS011;50299;49.524;8.536;2023-06-22T07:00:33;7.05;;;6.28;;
64052;SDS011;50299;49.524;8.536;2023-06-22T07:03:01;9.90;;;6.75;;
64052;SDS011;50299;49.524;8.536;2023-06-22T07:05:28;8.07;;;6.18;;
64052;SDS011;50299;49.524;8.536;2023-06-22T07:07:56;6.32;;;5.75;;
64052;SDS011;50299;49.524;8.536;2023-06-22T07:10:23;6.05;;;5.55;;
64052;SDS011;50299;49.524;8.536;2023-06-22T07:12:49;7.82;;;6.10;;
64052;SDS011;50299;49.524;8.536;2023-06-22T07:15:15;6.60;;;5.90;;
64052;SDS011;50299;49.524;8.536;2023-06-22T07:17:42;6.20;;;5.65;;
64052;SDS011;50299;49.524;8.536;2023-06-22T07:20:09;6.22;;;5.63;;
64052;SDS011;50299;49.524;8.536;2023-06-22T07:22:39;8.20;;;5.68;;
64052;SDS011;50299;49.524;8.536;2023-06-22T07:25:09;5.43;;;4.93;;
64052;SDS011;50299;49.524;8.536;2023-06-22T07:27:37;6.30;;;5.72;;
64052;SDS011;50299;49.524;8.536;2023-06-22T07:30:11;6.05;;;5.45;;
64052;SDS011;50299;49.524;8.536;2023-06-22T07:32:38;6.60;;;5.40;;
64052;SDS011;50299;49.524;8.536;2023-06-22T07:35:05;6.13;;;5.10;;
64052;SDS011;50299;49.524;8.536;2023-06-22T07:37:32;5.93;;;5.25;;
64052;SDS011;50299;49.524;8.536;2023-06-22T07:40:01;6.82;;;6.20;;
64052;SDS011;50299;49.524;8.536;2023-06-22T07:42:30;6.82;;;5.78;;
64052;SDS011;50299;49.524;8.536;2023-06-22T07:44:59;5.78;;;5.30;;
64052;SDS011;50299;49.524;8.536;2023-06-22T07:47:26;6.18;;;5.57;;
64052;SDS011;50299;49.524;8.536;2023-06-22T07:49:54;6.70;;;6.10;;
64052;SDS011;50299;49.524;8.536;2023-06-22T07:52:24;6.35;;;5.75;;
64052;SDS011;50299;49.524;8.536;2023-06-22T07:54:51;5.95;;;5.32;;
64052;SDS011;50299;49.524;8.536;2023-06-22T07:57:18;6.18;;;5.57;;
64052;SDS011;50299;49.524;8.536;2023-06-22T07:59:45;5.95;;;5.45;;
64052;SDS011;50299;49.524;8.536;2023-06-22T08:02:12;6.28;;;5.72;;
64052;SDS011;50299;49.524;8.536;2023-06-22T08:04:38;5.63;;;5.13;;
64052;SDS011;50299;49.524;8.536;2023-06-22T08:07:05;6.68;;;5.93;;
64052;SDS011;50299;49.524;8.536;2023-06-22T08:09:32;6.05;;;5.55;;
64052;SDS011;50299;49.524;8.536;2023-06-22T08:11:59;6.45;;;5.22;;
64052;SDS011;50299;49.524;8.536;2023-06-22T08:14:26;5.38;;;4.88;;
64052;SDS011;50299;49.524;8.536;2023-06-22T08:16:53;5.93;;;5.32;;
64052;SDS011;50299;49.524;8.536;2023-06-22T08:19:20;5.90;;;5.40;;
64052;SDS011;50299;49.524;8.536;2023-06-22T08:21:46;5.90;;;5.40;;
64052;SDS011;50299;49.524;8.536;2023-06-22T08:24:13;10.35;;;5.53;;
64052;SDS011;50299;49.524;8.536;2023-06-22T08:26:39;7.13;;;5.25;;
64052;SDS011;50299;49.524;8.536;2023-06-22T08:29:06;5.38;;;4.97;;
64052;SDS011;50299;49.524;8.536;2023-06-22T08:31:32;5.30;;;4.70;;
64052;SDS011;50299;49.524;8.536;2023-06-22T08:34:01;5.78;;;5.15;;
64052;SDS011;50299;49.524;8.536;2023-06-22T08:36:28;5.85;;;5.20;;
64052;SDS011;50299;49.524;8.536;2023-06-22T08:38:58;5.50;;;4.60;;
64052;SDS011;50299;49.524;8.536;2023-06-22T08:41:27;5.63;;;5.10;;
64052;SDS011;50299;49.524;8.536;2023-06-22T08:43:54;4.82;;;4.43;;
64052;SDS011;50299;49.524;8.536;2023-06-22T08:46:20;5.78;;;5.28;;
64052;SDS011;50299;49.524;8.536;2023-06-22T08:48:49;9.63;;;5.65;;
64052;SDS011;50299;49.524;8.536;2023-06-22T08:51:18;5.20;;;4.80;;
64052;SDS011;50299;49.524;8.536;2023-06-22T08:53:45;5.40;;;4.90;;
64052;SDS011;50299;49.524;8.536;2023-06-22T08:56:11;5.55;;;4.78;;
64052;SDS011;50299;49.524;8.536;2023-06-22T08:58:38;6.57;;;5.47;;
64052;SDS011;50299;49.524;8.536;2023-06-22T09:01:04;4.97;;;4.47;;
64052;SDS011;50299;49.524;8.536;2023-06-22T09:03:31;5.43;;;4.32;;
64052;SDS011;50299;49.524;8.536;2023-06-22T09:08:25;5.40;;;4.90;;
64052;SDS011;50299;49.524;8.536;2023-06-22T09:10:52;4.97;;;4.53;;
64052;SDS011;50299;49.524;8.536;2023-06-22T09:13:18;6.28;;;5.25;;
64052;SDS011;50299;49.524;8.536;2023-06-22T09:15:45;8.40;;;4.80;;
64052;SDS011;50299;49.524;8.536;2023-06-22T09:18:12;5.18;;;4.68;;
64052;SDS011;50299;49.524;8.536;2023-06-22T09:20:39;5.93;;;4.82;;
64052;SDS011;50299;49.524;8.536;2023-06-22T09:23:06;4.57;;;4.18;;
64052;SDS011;50299;49.524;8.536;2023-06-22T09:25:32;4.97;;;4.47;;
64052;SDS011;50299;49.524;8.536;2023-06-22T09:27:59;5.25;;;4.80;;
64052;SDS011;50299;49.524;8.536;2023-06-22T09:30:25;4.97;;;4.45;;
64052;SDS011;50299;49.524;8.536;2023-06-22T09:32:55;5.57;;;4.47;;
64052;SDS011;50299;49.524;8.536;2023-06-22T09:35:22;7.15;;;4.90;;
64052;SDS011;50299;49.524;8.536;2023-06-22T09:37:48;7.03;;;4.57;;
64052;SDS011;50299;49.524;8.536;2023-06-22T09:40:15;7.55;;;5.25;;
64052;SDS011;50299;49.524;8.536;2023-06-22T09:42:43;6.95;;;4.90;;
64052;SDS011;50299;49.524;8.536;2023-06-22T09:45:10;7.18;;;5.22;;
64052;SDS011;50299;49.524;8.536;2023-06-22T09:47:38;5.30;;;4.72;;
64052;SDS011;50299;49.524;8.536;2023-06-22T09:50:05;6.13;;;4.93;;
64052;SDS011;50299;49.524;8.536;2023-06-22T09:52:32;5.03;;;4.30;;
64052;SDS011;50299;49.524;8.536;2023-06-22T09:55:13;5.22;;;4.63;;
64052;SDS011;50299;49.524;8.536;2023-06-22T09:57:42;19.67;;;5.70;;
64052;SDS011;50299;49.524;8.536;2023-06-22T10:00:08;9.45;;;4.70;;
64052;SDS011;50299;49.524;8.536;2023-06-22T10:02:38;5.78;;;4.43;;
64052;SDS011;50299;49.524;8.536;2023-06-22T10:05:05;5.78;;;4.50;;
64052;SDS011;50299;49.524;8.536;2023-06-22T10:07:32;8.02;;;4.75;;
64052;SDS011;50299;49.524;8.536;2023-06-22T10:09:58;8.52;;;4.88;;
64052;SDS011;50299;49.524;8.536;2023-06-22T10:12:26;9.15;;;4.43;;
64052;SDS011;50299;49.524;8.536;2023-06-22T10:14:53;6.75;;;4.70;;
64052;SDS011;50299;49.524;8.536;2023-06-22T10:17:20;7.78;;;4.75;;
64052;SDS011;50299;49.524;8.536;2023-06-22T10:19:46;6.28;;;4.97;;
64052;SDS011;50299;49.524;8.536;2023-06-22T10:22:13;7.22;;;4.80;;
64052;SDS011;50299;49.524;8.536;2023-06-22T10:24:39;6.28;;;4.95;;
64052;SDS011;50299;49.524;8.536;2023-06-22T10:27:10;7.43;;;5.38;;
64052;SDS011;50299;49.524;8.536;2023-06-22T10:29:38;7.63;;;4.78;;
64052;SDS011;50299;49.524;8.536;2023-06-22T10:32:04;8.30;;;4.78;;
64052;SDS011;50299;49.524;8.536;2023-06-22T10:34:31;6.35;;;5.45;;
64052;SDS011;50299;49.524;8.536;2023-06-22T10:36:57;7.00;;;5.18;;
64052;SDS011;50299;49.524;8.536;2023-06-22T10:39:24;6.55;;;4.68;;
64052;SDS011;50299;49.524;8.536;2023-06-22T10:41:50;6.57;;;5.07;;
64052;SDS011;50299;49.524;8.536;2023-06-22T10:44:17;7.93;;;5.00;;
64052;SDS011;50299;49.524;8.536;2023-06-22T10:46:43;11.85;;;5.72;;
64052;SDS011;50299;49.524;8.536;2023-06-22T10:49:10;6.07;;;5.45;;
64052;SDS011;50299;49.524;8.536;2023-06-22T10:51:36;9.32;;;5.13;;
64052;SDS011;50299;49.524;8.536;2023-06-22T10:54:03;10.77;;;5.35;;
64052;SDS011;50299;49.524;8.536;2023-06-22T10:56:30;7.15;;;5.07;;
64052;SDS011;50299;49.524;8.536;2023-06-22T10:58:59;6.32;;;5.45;;
64052;SDS011;50299;49.524;8.536;2023-06-22T11:01:26;6.82;;;5.30;;
64052;SDS011;50299;49.524;8.536;2023-06-22T11:04:02;8.48;;;5.07;;
64052;SDS011;50299;49.524;8.536;2023-06-22T11:06:29;8.18;;;5.65;;
64052;SDS011;50299;49.524;8.536;2023-06-22T11:08:56;9.20;;;5.50;;
64052;SDS011;50299;49.524;8.536;2023-06-22T11:11:42;7.60;;;5.22;;
64052;SDS011;50299;49.524;8.536;2023-06-22T11:14:09;8.80;;;5.63;;
64052;SDS011;50299;49.524;8.536;2023-06-22T11:16:35;7.15;;;5.15;;
64052;SDS011;50299;49.524;8.536;2023-06-22T11:19:02;9.30;;;5.05;;
64052;SDS011;50299;49.524;8.536;2023-06-22T11:21:29;8.23;;;4.90;;
64052;SDS011;50299;49.524;8.536;2023-06-22T11:23:56;8.57;;;5.65;;
64052;SDS011;50299;49.524;8.536;2023-06-22T11:26:22;7.40;;;5.28;;
64052;SDS011;50299;49.524;8.536;2023-06-22T11:28:49;9.93;;;5.82;;
64052;SDS011;50299;49.524;8.536;2023-06-22T11:31:16;8.20;;;5.00;;
64052;SDS011;50299;49.524;8.536;2023-06-22T11:33:51;7.70;;;5.28;;
64052;SDS011;50299;49.524;8.536;2023-06-22T11:36:18;8.40;;;5.30;;
64052;SDS011;50299;49.524;8.536;2023-06-22T11:38:45;6.15;;;4.50;;
64052;SDS011;50299;49.524;8.536;2023-06-22T11:41:11;10.73;;;4.97;;
64052;SDS011;50299;49.524;8.536;2023-06-22T11:43:38;7.75;;;5.28;;
64052;SDS011;50299;49.524;8.536;2023-06-22T11:46:04;16.42;;;5.75;;
64052;SDS011;50299;49.524;8.536;2023-06-22T11:48:31;17.40;;;5.88;;
64052;SDS011;50299;49.524;8.536;2023-06-22T11:50:58;6.80;;;5.45;;
64052;SDS011;50299;49.524;8.536;2023-06-22T11:53:26;10.23;;;4.95;;
64052;SDS011;50299;49.524;8.536;2023-06-22T11:55:53;8.90;;;5.05;;
64052;SDS011;50299;49.524;8.536;2023-06-22T11:58:20;20.65;;;5.82;;
64052;SDS011;50299;49.524;8.536;2023-06-22T12:00:47;9.00;;;5.53;;
64052;SDS011;50299;49.524;8.536;2023-06-22T12:03:17;8.38;;;4.80;;
64052;SDS011;50299;49.524;8.536;2023-06-22T12:05:45;7.90;;;4.95;;
64052;SDS011;50299;49.524;8.536;2023-06-22T12:08:11;5.45;;;4.95;;
64052;SDS011;50299;49.524;8.536;2023-06-22T12:10:39;6.70;;;5.97;;
64052;SDS011;50299;49.524;8.536;2023-06-22T12:13:06;8.98;;;5.75;;
64052;SDS011;50299;49.524;8.536;2023-06-22T12:15:32;6.90;;;4.90;;
64052;SDS011;50299;49.524;8.536;2023-06-22T12:17:59;10.18;;;5.00;;
64052;SDS011;50299;49.524;8.536;2023-06-22T12:20:27;8.85;;;5.25;;
64052;SDS011;50299;49.524;8.536;2023-06-22T12:22:54;9.27;;;4.78;;
64052;SDS011;50299;49.524;8.536;2023-06-22T12:25:22;6.95;;;5.10;;
64052;SDS011;50299;49.524;8.536;2023-06-22T12:27:49;7.32;;;4.80;;
64052;SDS011;50299;49.524;8.536;2023-06-22T12:30:16;9.90;;;5.22;;
64052;SDS011;50299;49.524;8.536;2023-06-22T12:32:45;8.05;;;4.90;;
64052;SDS011;50299;49.524;8.536;2023-06-22T12:35:12;11.73;;;4.93;;
64052;SDS011;50299;49.524;8.536;2023-06-22T12:37:40;8.90;;;5.72;;
64052;SDS011;50299;49.524;8.536;2023-06-22T12:40:08;10.15;;;5.10;;
64052;SDS011;50299;49.524;8.536;2023-06-22T12:42:36;7.40;;;5.32;;
64052;SDS011;50299;49.524;8.536;2023-06-22T12:45:03;9.80;;;5.45;;
64052;SDS011;50299;49.524;8.536;2023-06-22T12:47:30;19.80;;;5.97;;
64052;SDS011;50299;49.524;8.536;2023-06-22T12:49:57;8.93;;;5.00;;
64052;SDS011;50299;49.524;8.536;2023-06-22T12:52:23;7.75;;;5.00;;
64052;SDS011;50299;49.524;8.536;2023-06-22T12:54:53;19.35;;;5.72;;
64052;SDS011;50299;49.524;8.536;2023-06-22T12:57:22;8.88;;;5.00;;
64052;SDS011;50299;49.524;8.536;2023-06-22T12:59:49;9.00;;;4.97;;
64052;SDS011;50299;49.524;8.536;2023-06-22T13:02:16;8.10;;;5.25;;
64052;SDS011;50299;49.524;8.536;2023-06-22T13:04:42;39.63;;;8.07;;
64052;SDS011;50299;49.524;8.536;2023-06-22T13:07:09;11.07;;;5.18;;
64052;SDS011;50299;49.524;8.536;2023-06-22T13:09:49;8.10;;;4.85;;
64052;SDS011;50299;49.524;8.536;2023-06-22T13:12:19;8.20;;;4.70;;
64052;SDS011;50299;49.524;8.536;2023-06-22T13:14:48;6.03;;;4.93;;
64052;SDS011;50299;49.524;8.536;2023-06-22T13:17:15;7.75;;;5.28;;
64052;SDS011;50299;49.524;8.536;2023-06-22T13:19:41;7.53;;;4.75;;
64052;SDS011;50299;49.524;8.536;2023-06-22T13:22:25;11.43;;;5.68;;
64052;SDS011;50299;49.524;8.536;2023-06-22T13:24:52;9.20;;;4.97;;
64052;SDS011;50299;49.524;8.536;2023-06-22T13:27:21;10.02;;;5.07;;
64052;SDS011;50299;49.524;8.536;2023-06-22T13:29:48;6.22;;;4.50;;
64052;SDS011;50299;49.524;8.536;2023-06-22T13:32:18;7.00;;;5.32;;
64052;SDS011;50299;49.524;8.536;2023-06-22T13:34:45;8.70;;;5.20;;
64052;SDS011;50299;49.524;8.536;2023-06-22T13:37:11;10.23;;;5.78;;
64052;SDS011;50299;49.524;8.536;2023-06-22T13:39:38;7.68;;;5.25;;
64052;SDS011;50299;49.524;8.536;2023-06-22T13:42:05;7.88;;;5.43;;
64052;SDS011;50299;49.524;8.536;2023-06-22T13:44:32;10.38;;;5.03;;
64052;SDS011;50299;49.524;8.536;2023-06-22T13:46:59;7.25;;;5.20;;
64052;SDS011;50299;49.524;8.536;2023-06-22T13:49:26;9.77;;;5.03;;
64052;SDS011;50299;49.524;8.536;2023-06-22T13:51:53;8.02;;;5.13;;
64052;SDS011;50299;49.524;8.536;2023-06-22T13:54:19;7.90;;;5.07;;
64052;SDS011;50299;49.524;8.536;2023-06-22T13:56:49;8.82;;;5.03;;
64052;SDS011;50299;49.524;8.536;2023-06-22T13:59:16;9.63;;;5.28;;
64052;SDS011;50299;49.524;8.536;2023-06-22T14:01:43;7.78;;;4.80;;
64052;SDS011;50299;49.524;8.536;2023-06-22T14:04:10;12.10;;;5.13;;
64052;SDS011;50299;49.524;8.536;2023-06-22T14:06:37;7.40;;;4.88;;
64052;SDS011;50299;49.524;8.536;2023-06-22T14:09:06;7.25;;;5.40;;
64052;SDS011;50299;49.524;8.536;2023-06-22T14:11:33;37.78;;;7.93;;
64052;SDS011;50299;49.524;8.536;2023-06-22T14:13:59;6.90;;;5.15;;
64052;SDS011;50299;49.524;8.536;2023-06-22T14:16:26;11.93;;;5.65;;
64052;SDS011;50299;49.524;8.536;2023-06-22T14:18:52;9.30;;;5.15;;
64052;SDS011;50299;49.524;8.536;2023-06-22T14:21:22;8.30;;;5.25;;
64052;SDS011;50299;49.524;8.536;2023-06-22T14:23:49;10.10;;;5.35;;
64052;SDS011;50299;49.524;8.536;2023-06-22T14:26:16;8.88;;;5.50;;
64052;SDS011;50299;49.524;8.536;2023-06-22T14:28:45;8.52;;;5.65;;
64052;SDS011;50299;49.524;8.536;2023-06-22T14:31:17;8.18;;;6.03;;
64052;SDS011;50299;49.524;8.536;2023-06-22T14:33:47;11.07;;;5.68;;
64052;SDS011;50299;49.524;8.536;2023-06-22T14:36:15;12.77;;;5.68;;
64052;SDS011;50299;49.524;8.536;2023-06-22T14:38:44;16.10;;;6.43;;
64052;SDS011;50299;49.524;8.536;2023-06-22T14:41:12;14.93;;;6.20;;
64052;SDS011;50299;49.524;8.536;2023-06-22T14:43:45;9.55;;;5.93;;
64052;SDS011;50299;49.524;8.536;2023-06-22T14:46:18;9.95;;;5.93;;
64052;SDS011;50299;49.524;8.536;2023-06-22T14:48:45;7.57;;;6.18;;
64052;SDS011;50299;49.524;8.536;2023-06-22T14:51:12;10.32;;;6.45;;
64052;SDS011;50299;49.524;8.536;2023-06-22T14:53:45;7.40;;;5.68;;